createdAt,value
2019-04-25T00:01:29.016Z,30.17
2019-04-25T00:03:59.138Z,29.80
2019-04-25T00:06:29.278Z,23.10
2019-04-25T00:08:59.614Z,20.83
2019-04-25T00:11:31.182Z,24.30
2019-04-25T00:14:01.603Z,22.20
2019-04-25T00:16:32.903Z,23.77
2019-04-25T00:19:02.965Z,18.40
2019-04-25T00:21:55.126Z,17.40
2019-04-25T00:24:33.417Z,17.30
2019-04-25T00:27:04.636Z,18.90
2019-04-25T00:29:34.805Z,19.43
2019-04-25T00:32:06.119Z,17.80
2019-04-25T00:34:37.461Z,17.80
2019-04-25T00:37:09.381Z,17.23
2019-04-25T00:39:39.629Z,16.70
2019-04-25T00:42:10.018Z,15.90
2019-04-25T00:44:42.506Z,26.87
2019-04-25T00:47:12.105Z,16.47
2019-04-25T00:49:44.054Z,17.37
2019-04-25T00:52:14.221Z,17.10
2019-04-25T00:54:44.514Z,16.27
2019-04-25T00:57:15.046Z,18.33
2019-04-25T00:59:52.811Z,15.83
2019-04-25T01:02:31.421Z,16.23
2019-04-25T01:05:01.978Z,14.20
2019-04-25T01:07:34.406Z,15.23
2019-04-25T01:10:06.650Z,16.20
2019-04-25T01:12:37.595Z,21.30
2019-04-25T01:15:09.609Z,16.63
2019-04-25T01:17:41.229Z,15.40
2019-04-25T01:20:13.897Z,23.20
2019-04-25T01:22:44.149Z,15.23
2019-04-25T01:25:14.653Z,16.10
2019-04-25T01:27:46.065Z,16.43
2019-04-25T01:30:19.353Z,16.43
2019-04-25T01:32:50.410Z,15.73
2019-04-25T01:35:29.542Z,15.80
2019-04-25T01:38:24.714Z,17.90
2019-04-25T01:41:14.439Z,16.40
2019-04-25T01:44:06.902Z,15.43
2019-04-25T01:46:39.188Z,17.90
2019-04-25T01:49:09.377Z,16.87
2019-04-25T01:51:39.471Z,17.47
2019-04-25T01:54:09.541Z,17.50
2019-04-25T01:56:39.693Z,16.30
2019-04-25T01:59:09.942Z,18.80
2019-04-25T02:01:40.927Z,18.40
2019-04-25T02:04:11.116Z,16.97
2019-04-25T02:06:41.259Z,17.60
2019-04-25T02:09:13.646Z,18.57
2019-04-25T02:11:58.908Z,20.57
2019-04-25T02:14:29.182Z,26.23
2019-04-25T02:17:00.245Z,17.50
2019-04-25T02:19:30.731Z,19.03
2019-04-25T02:22:00.864Z,17.87
2019-04-25T02:24:31.002Z,15.23
2019-04-25T02:27:01.188Z,20.27
2019-04-25T02:29:40.517Z,17.03
2019-04-25T02:32:10.642Z,17.87
2019-04-25T02:34:40.810Z,16.73
2019-04-25T02:37:10.964Z,18.73
2019-04-25T02:39:41.173Z,14.77
2019-04-25T02:42:11.317Z,20.43
2019-04-25T02:44:46.154Z,18.57
2019-04-25T02:47:24.900Z,19.57
2019-04-25T02:50:15.184Z,16.83
2019-04-25T02:52:54.250Z,15.70
2019-04-25T02:55:34.239Z,16.17
2019-04-25T02:57:57.043Z,20.17
2019-04-25T03:00:45.887Z,17.27
2019-04-25T03:03:01.181Z,21.00
2019-04-25T03:05:31.542Z,20.00
2019-04-25T03:08:05.381Z,20.50
2019-04-25T03:10:34.891Z,19.17
2019-04-25T03:13:10.224Z,22.07
2019-04-25T03:15:37.245Z,21.67
2019-04-25T03:18:11.941Z,23.27
2019-04-25T03:20:54.853Z,23.20
2019-04-25T03:23:37.914Z,24.03
2019-04-25T03:26:08.029Z,27.13
2019-04-25T03:28:38.149Z,27.23
2019-04-25T03:31:15.297Z,26.27
2019-04-25T03:33:40.172Z,27.00
2019-04-25T03:36:10.321Z,32.90
2019-04-25T03:38:40.473Z,30.63
2019-04-25T03:41:10.650Z,25.80
2019-04-25T03:43:40.915Z,31.83
2019-04-25T03:46:11.157Z,30.17
2019-04-25T03:48:41.311Z,34.50
2019-04-25T03:51:12.191Z,30.43
2019-04-25T03:53:43.736Z,33.83
2019-04-25T03:56:14.610Z,39.17
2019-04-25T03:58:45.052Z,38.07
2019-04-25T04:01:15.719Z,84.90
2019-04-25T04:03:46.021Z,45.07
2019-04-25T04:06:16.186Z,32.47
2019-04-25T04:08:46.397Z,46.10
2019-04-25T04:11:16.538Z,32.43
2019-04-25T04:13:46.678Z,32.33
2019-04-25T04:16:19.609Z,30.67
2019-04-25T04:18:51.743Z,33.43
2019-04-25T04:21:49.902Z,31.07
2019-04-25T04:24:34.235Z,35.60
2019-04-25T04:27:17.011Z,30.20
2019-04-25T04:29:47.230Z,34.83
2019-04-25T04:32:17.538Z,30.73
2019-04-25T04:34:47.702Z,34.53
2019-04-25T04:37:17.813Z,42.13
2019-04-25T04:39:48.024Z,25.67
2019-04-25T04:42:18.214Z,29.53
2019-04-25T04:44:48.338Z,25.40
2019-04-25T04:47:18.605Z,27.23
2019-04-25T04:49:49.923Z,28.23
2019-04-25T04:52:20.073Z,32.70
2019-04-25T04:54:50.165Z,32.90
2019-04-25T04:57:28.869Z,33.57
2019-04-25T04:59:53.487Z,32.33
2019-04-25T05:02:43.265Z,40.70
2019-04-25T05:05:45.125Z,28.13
2019-04-25T05:08:21.239Z,34.30
2019-04-25T05:10:51.431Z,33.60
2019-04-25T05:13:22.073Z,38.30
2019-04-25T05:15:53.243Z,38.30
2019-04-25T05:18:34.572Z,42.83
2019-04-25T05:20:56.334Z,39.20
2019-04-25T05:23:26.562Z,44.30
2019-04-25T05:25:56.733Z,49.60
2019-04-25T05:28:26.926Z,47.23
2019-04-25T05:31:15.411Z,44.30
2019-04-25T05:33:44.855Z,46.20
2019-04-25T05:36:15.495Z,41.83
2019-04-25T05:38:46.748Z,37.17
2019-04-25T05:41:33.752Z,37.80
2019-04-25T05:44:04.989Z,37.47
2019-04-25T05:46:35.350Z,34.53
2019-04-25T05:49:05.589Z,30.07
2019-04-25T05:51:35.736Z,34.13
2019-04-25T05:54:06.086Z,28.60
2019-04-25T05:56:36.179Z,31.77
2019-04-25T05:59:06.498Z,33.57
2019-04-25T06:01:36.695Z,32.67
2019-04-25T06:04:06.782Z,33.53
2019-04-25T06:06:36.992Z,30.70
2019-04-25T06:09:21.811Z,34.37
2019-04-25T06:12:03.108Z,34.97
2019-04-25T06:14:34.718Z,54.33
2019-04-25T06:17:08.166Z,36.27
2019-04-25T06:19:50.457Z,38.30
2019-04-25T06:22:26.806Z,35.90
2019-04-25T06:25:02.283Z,39.47
2019-04-25T06:27:40.903Z,42.57
2019-04-25T06:30:27.322Z,39.27
2019-04-25T06:32:57.938Z,42.50
2019-04-25T06:35:28.364Z,47.50
2019-04-25T06:37:58.492Z,48.80
2019-04-25T06:40:32.435Z,46.70
2019-04-25T06:43:03.410Z,45.23
2019-04-25T06:45:54.084Z,50.80
2019-04-25T06:48:37.437Z,46.07
2019-04-25T06:51:07.590Z,50.93
2019-04-25T06:53:37.696Z,66.40
2019-04-25T06:56:07.858Z,73.40
2019-04-25T06:58:38.126Z,90.20
2019-04-25T07:01:08.231Z,106.70
2019-04-25T07:03:38.442Z,138.03
2019-04-25T07:06:08.634Z,252.87
2019-04-25T07:08:38.857Z,104.57
2019-04-25T07:11:09.893Z,323.30
2019-04-25T07:13:40.123Z,231.83
2019-04-25T07:16:10.455Z,425.33
2019-04-25T07:18:40.745Z,339.57
2019-04-25T07:21:10.912Z,401.83
2019-04-25T07:23:41.179Z,593.40
2019-04-25T07:26:30.396Z,715.13
2019-04-25T07:29:13.570Z,789.93
2019-04-25T07:32:03.920Z,746.87
2019-04-25T07:34:35.582Z,857.43
2019-04-25T07:37:05.719Z,826.57
2019-04-25T07:39:36.465Z,866.50
2019-04-25T07:42:06.751Z,807.00
2019-04-25T07:44:49.310Z,755.53
2019-04-25T07:47:08.942Z,816.40
2019-04-25T07:49:39.066Z,825.87
2019-04-25T07:52:11.486Z,800.63
2019-04-25T07:54:41.253Z,811.83
2019-04-25T07:57:11.494Z,857.33
2019-04-25T07:59:41.723Z,817.90
2019-04-25T08:02:13.356Z,779.13
2019-04-25T08:04:44.683Z,771.47
2019-04-25T08:07:16.118Z,678.50
2019-04-25T08:09:46.308Z,669.47
2019-04-25T08:12:16.506Z,688.27
2019-04-25T08:15:13.776Z,609.80
2019-04-25T08:18:01.329Z,598.63
2019-04-25T08:20:32.414Z,575.90
2019-04-25T08:23:04.746Z,580.53
2019-04-25T08:25:37.648Z,548.70
2019-04-25T08:28:06.880Z,548.73
2019-04-25T08:30:38.139Z,567.40
2019-04-25T08:33:08.416Z,526.17
2019-04-25T08:35:38.779Z,530.33
2019-04-25T08:38:08.919Z,538.93
2019-04-25T08:40:40.299Z,565.23
2019-04-25T08:43:10.578Z,614.83
2019-04-25T08:45:40.835Z,539.53
2019-04-25T08:48:10.915Z,557.10
2019-04-25T08:50:47.883Z,593.07
2019-04-25T08:53:18.007Z,637.50
2019-04-25T08:55:57.471Z,662.53
2019-04-25T08:59:03.302Z,609.67
2019-04-25T09:01:29.521Z,680.63
2019-04-25T09:04:13.846Z,711.17
2019-04-25T09:06:44.302Z,735.60
2019-04-25T09:09:14.545Z,732.17
2019-04-25T09:11:46.893Z,677.87
2019-04-25T09:14:16.755Z,744.90
2019-04-25T09:16:46.894Z,741.93
2019-04-25T09:19:17.074Z,781.27
2019-04-25T09:21:49.537Z,734.47
2019-04-25T09:24:19.077Z,709.40
2019-04-25T09:26:49.199Z,735.50
2019-04-25T09:29:20.019Z,754.17
2019-04-25T09:31:50.479Z,734.53
2019-04-25T09:34:20.702Z,710.93
2019-04-25T09:36:50.810Z,735.87
2019-04-25T09:39:43.478Z,745.43
2019-04-25T09:42:14.555Z,718.17
2019-04-25T09:45:03.778Z,748.67
2019-04-25T09:47:36.259Z,683.27
2019-04-25T09:50:11.603Z,749.00
2019-04-25T09:52:44.033Z,749.13
2019-04-25T09:55:22.460Z,769.17
2019-04-25T09:57:55.674Z,777.67
2019-04-25T10:00:36.383Z,751.77
2019-04-25T10:03:06.782Z,728.03
2019-04-25T10:05:37.031Z,734.90
2019-04-25T10:08:07.333Z,790.50
2019-04-25T10:10:38.777Z,762.83
2019-04-25T10:13:09.063Z,766.77
2019-04-25T10:16:03.280Z,714.83
2019-04-25T10:18:37.714Z,791.93
2019-04-25T10:21:11.106Z,719.30
2019-04-25T10:23:44.054Z,810.97
2019-04-25T10:26:14.503Z,784.53
2019-04-25T10:28:45.182Z,749.20
2019-04-25T10:31:15.626Z,784.07
2019-04-25T10:33:47.009Z,801.87
2019-04-25T10:36:17.505Z,742.73
2019-04-25T10:39:03.295Z,777.97
2019-04-25T10:41:20.056Z,812.03
2019-04-25T10:43:50.497Z,780.33
2019-04-25T10:46:21.700Z,784.80
2019-04-25T10:48:54.004Z,806.47
2019-04-25T10:51:24.020Z,748.53
2019-04-25T10:53:55.114Z,776.13
2019-04-25T10:56:25.322Z,802.67
2019-04-25T10:58:55.566Z,818.80
2019-04-25T11:01:25.758Z,562.03
2019-04-25T11:04:04.798Z,728.73
2019-04-25T11:06:36.318Z,999.90
2019-04-25T11:09:09.696Z,999.90
2019-04-25T11:11:40.733Z,999.90
2019-04-25T11:14:13.535Z,999.90
2019-04-25T11:16:45.535Z,999.90
2019-04-25T11:19:16.001Z,999.90
2019-04-25T11:21:46.634Z,999.90
2019-04-25T11:24:16.923Z,999.90
2019-04-25T11:26:49.903Z,999.90
2019-04-25T11:29:19.423Z,999.90
2019-04-25T11:31:49.586Z,999.90
2019-04-25T11:34:20.606Z,999.90
2019-04-25T11:36:50.876Z,999.90
2019-04-25T11:39:47.287Z,999.90
2019-04-25T11:42:17.516Z,999.90
2019-04-25T11:47:03.846Z,999.90
2019-04-25T11:49:34.664Z,999.90
2019-04-25T11:52:05.506Z,999.90
2019-04-25T11:54:35.834Z,999.90
2019-04-25T11:57:06.164Z,999.90
2019-04-25T11:59:36.386Z,999.90
2019-04-25T12:02:08.158Z,999.90
2019-04-25T12:04:38.361Z,999.90
2019-04-25T12:07:09.522Z,999.90
2019-04-25T12:09:39.947Z,999.90
2019-04-25T12:12:10.157Z,999.90
2019-04-25T12:14:40.461Z,999.90
2019-04-25T12:17:10.566Z,999.90
2019-04-25T12:19:40.906Z,999.90
2019-04-25T12:22:10.957Z,999.90
2019-04-25T12:24:41.230Z,999.90
2019-04-25T12:27:11.387Z,999.90
2019-04-25T12:29:41.485Z,999.90
2019-04-25T12:32:12.117Z,999.90
2019-04-25T12:34:42.348Z,999.90
2019-04-25T12:37:12.514Z,999.90
2019-04-25T12:39:42.626Z,999.90
2019-04-25T12:42:14.354Z,999.90
2019-04-25T12:45:06.479Z,985.90
2019-04-25T12:47:40.341Z,999.90
2019-04-25T12:50:10.749Z,999.90
2019-04-25T12:52:40.972Z,999.90
2019-04-25T12:55:13.994Z,999.90
2019-04-25T12:57:44.383Z,999.90
2019-04-25T13:00:17.222Z,999.90
2019-04-25T13:02:47.473Z,999.90
2019-04-25T13:05:17.626Z,999.90
2019-04-25T13:07:47.834Z,999.90
2019-04-25T13:10:18.156Z,999.90
2019-04-25T13:12:51.116Z,999.90
2019-04-25T13:15:21.374Z,999.90
2019-04-25T13:17:51.506Z,999.90
2019-04-25T13:20:21.741Z,999.90
2019-04-25T13:22:52.940Z,999.90
2019-04-25T13:25:24.380Z,999.90
2019-04-25T13:28:09.189Z,7.53
2019-04-25T13:31:04.142Z,6.23
2019-04-25T13:33:40.706Z,6.20
2019-04-25T13:36:13.422Z,5.93
2019-04-25T13:38:43.624Z,6.03
2019-04-25T13:41:15.360Z,6.30
2019-04-25T13:43:45.670Z,7.27
2019-04-25T13:46:19.661Z,6.73
2019-04-25T13:48:47.783Z,6.93
2019-04-25T13:51:18.015Z,6.70
2019-04-25T13:53:48.194Z,6.27
2019-04-25T13:56:18.857Z,6.60
2019-04-25T13:58:49.142Z,7.27
2019-04-25T14:01:20.262Z,7.37
2019-04-25T14:03:51.237Z,6.93
2019-04-25T14:06:21.566Z,7.07
2019-04-25T14:08:53.267Z,6.47
2019-04-25T14:11:24.167Z,6.03
2019-04-25T14:13:54.383Z,6.30
2019-04-25T14:16:35.194Z,7.70
2019-04-25T14:19:25.196Z,6.40
2019-04-25T14:21:58.310Z,5.80
2019-04-25T14:24:30.757Z,6.00
2019-04-25T14:27:00.319Z,6.47
2019-04-25T14:29:31.024Z,5.93
2019-04-25T14:32:03.285Z,6.63
2019-04-25T14:34:34.462Z,6.23
2019-04-25T14:37:05.726Z,6.17
2019-04-25T14:39:36.036Z,6.20
2019-04-25T14:42:06.334Z,6.03
2019-04-25T14:44:36.467Z,6.20
2019-04-25T14:47:06.614Z,6.37
2019-04-25T14:49:36.761Z,6.50
2019-04-25T14:52:06.951Z,5.80
2019-04-25T14:54:46.174Z,5.73
2019-04-25T14:57:21.851Z,5.27
2019-04-25T14:59:53.115Z,5.23
2019-04-25T15:02:25.722Z,5.70
2019-04-25T15:04:56.098Z,5.60
2019-04-25T15:07:26.173Z,5.70
2019-04-25T15:09:56.315Z,5.53
2019-04-25T15:12:26.873Z,5.40
2019-04-25T15:14:57.130Z,5.77
2019-04-25T15:17:27.268Z,5.93
2019-04-25T15:19:57.397Z,5.63
2019-04-25T15:22:27.978Z,5.47
2019-04-25T15:24:58.145Z,6.27
2019-04-25T15:27:29.111Z,6.60
2019-04-25T15:29:59.388Z,6.03
2019-04-25T15:32:32.654Z,5.80
2019-04-25T15:35:02.988Z,5.83
2019-04-25T15:37:51.776Z,5.73
2019-04-25T15:40:36.509Z,5.40
2019-04-25T15:43:23.826Z,5.83
2019-04-25T15:46:11.088Z,6.33
2019-04-25T15:48:41.312Z,6.03
2019-04-25T15:51:11.434Z,6.03
2019-04-25T15:53:42.292Z,6.07
2019-04-25T15:56:12.488Z,6.07
2019-04-25T15:58:42.729Z,6.23
2019-04-25T16:01:13.101Z,6.10
2019-04-25T16:03:43.301Z,6.27
2019-04-25T16:06:13.484Z,6.10
2019-04-25T16:08:43.654Z,5.77
2019-04-25T16:11:14.085Z,5.93
2019-04-25T16:13:44.226Z,5.87
2019-04-25T16:16:14.486Z,6.60
2019-04-25T16:18:44.662Z,7.03
2019-04-25T16:21:15.185Z,5.63
2019-04-25T16:23:45.479Z,5.93
2019-04-25T16:26:15.721Z,6.00
2019-04-25T16:28:45.886Z,5.47
2019-04-25T16:31:19.223Z,5.93
2019-04-25T16:33:49.606Z,6.30
2019-04-25T16:36:19.875Z,5.90
2019-04-25T16:38:50.079Z,6.10
2019-04-25T16:41:20.869Z,6.00
2019-04-25T16:43:54.991Z,5.67
2019-04-25T16:46:25.971Z,5.70
2019-04-25T16:48:56.326Z,5.50
2019-04-25T16:51:26.983Z,6.70
2019-04-25T16:53:57.079Z,6.07
2019-04-25T16:56:28.264Z,6.40
2019-04-25T16:58:59.866Z,6.10
2019-04-25T17:01:31.684Z,6.37
2019-04-25T17:04:02.003Z,6.07
2019-04-25T17:06:32.126Z,5.43
2019-04-25T17:09:02.261Z,6.73
2019-04-25T17:11:34.085Z,6.67
2019-04-25T17:14:33.375Z,6.83
2019-04-25T17:17:18.547Z,6.03
2019-04-25T17:19:56.836Z,6.07
2019-04-25T17:22:26.970Z,5.83
2019-04-25T17:24:57.033Z,5.93
2019-04-25T17:27:27.270Z,6.43
2019-04-25T17:29:57.525Z,6.40
2019-04-25T17:32:53.535Z,9.80
2019-04-25T17:35:44.360Z,6.70
2019-04-25T17:38:19.541Z,6.40
2019-04-25T17:40:49.869Z,6.00
2019-04-25T17:43:20.167Z,6.50
2019-04-25T17:45:50.419Z,6.93
2019-04-25T17:48:20.621Z,6.73
2019-04-25T17:50:50.834Z,6.90
2019-04-25T17:53:20.945Z,6.73
2019-04-25T17:55:51.153Z,6.80
2019-04-25T17:58:22.421Z,6.90
2019-04-25T18:00:52.612Z,6.73
2019-04-25T18:03:23.035Z,8.57
2019-04-25T18:05:53.370Z,7.20
2019-04-25T18:08:23.845Z,7.63
2019-04-25T18:10:54.241Z,7.13
2019-04-25T18:13:24.496Z,9.57
2019-04-25T18:16:19.614Z,7.90
2019-04-25T18:19:20.966Z,6.80
2019-04-25T18:21:51.292Z,6.70
2019-04-25T18:24:39.161Z,6.80
2019-04-25T18:27:28.455Z,7.43
2019-04-25T18:29:58.686Z,7.87
2019-04-25T18:32:32.291Z,9.30
2019-04-25T18:35:17.395Z,12.90
2019-04-25T18:38:06.744Z,12.67
2019-04-25T18:40:59.332Z,13.77
2019-04-25T18:43:33.710Z,13.47
2019-04-25T18:46:09.029Z,13.07
2019-04-25T18:48:39.194Z,12.23
2019-04-25T18:51:12.649Z,12.53
2019-04-25T18:54:01.977Z,13.20
2019-04-25T18:56:47.481Z,12.83
2019-04-25T18:59:46.053Z,13.57
2019-04-25T19:02:54.674Z,11.53
2019-04-25T19:05:43.833Z,11.23
2019-04-25T19:08:14.177Z,11.67
2019-04-25T19:10:45.106Z,10.93
2019-04-25T19:13:15.438Z,12.37
2019-04-25T19:15:45.858Z,12.43
2019-04-25T19:18:16.461Z,15.53
2019-04-25T19:20:46.721Z,17.10
2019-04-25T19:23:16.965Z,17.27
2019-04-25T19:25:47.924Z,17.37
2019-04-25T19:28:18.210Z,18.47
2019-04-25T19:30:48.435Z,18.67
2019-04-25T19:33:19.187Z,18.10
2019-04-25T19:35:49.559Z,17.17
2019-04-25T19:38:19.771Z,18.43
2019-04-25T19:40:59.251Z,18.00
2019-04-25T19:43:47.125Z,16.77
2019-04-25T19:46:18.491Z,15.70
2019-04-25T19:48:49.124Z,14.47
2019-04-25T19:51:21.828Z,14.80
2019-04-25T19:53:51.997Z,14.37
2019-04-25T19:56:22.155Z,13.57
2019-04-25T19:58:52.801Z,13.03
2019-04-25T20:01:23.031Z,12.80
2019-04-25T20:04:00.470Z,13.40
2019-04-25T20:06:48.266Z,12.93
2019-04-25T20:09:36.217Z,12.03
2019-04-25T20:12:06.719Z,12.10
2019-04-25T20:14:37.123Z,11.97
2019-04-25T20:17:07.390Z,12.23
2019-04-25T20:19:37.601Z,12.23
2019-04-25T20:22:07.772Z,11.47
2019-04-25T20:24:37.960Z,12.67
2019-04-25T20:27:08.834Z,12.13
2019-04-25T20:29:38.891Z,12.97
2019-04-25T20:32:09.089Z,12.53
2019-04-25T20:34:39.286Z,12.77
2019-04-25T20:37:09.510Z,13.27
2019-04-25T20:39:39.754Z,12.37
2019-04-25T20:42:10.579Z,12.87
2019-04-25T20:44:40.738Z,12.10
2019-04-25T20:47:10.998Z,13.00
2019-04-25T20:49:41.194Z,12.30
2019-04-25T20:52:13.666Z,12.60
2019-04-25T20:54:43.780Z,12.93
2019-04-25T20:57:13.923Z,12.17
2019-04-25T20:59:44.138Z,13.07
2019-04-25T21:02:14.411Z,13.23
2019-04-25T21:04:44.738Z,13.07
2019-04-25T21:07:14.918Z,12.47
2019-04-25T21:09:45.679Z,12.67
2019-04-25T21:12:15.842Z,12.57
2019-04-25T21:15:01.122Z,13.33
2019-04-25T21:17:34.711Z,12.77
2019-04-25T21:20:05.374Z,13.20
2019-04-25T21:22:35.471Z,13.30
2019-04-25T21:25:06.068Z,12.97
2019-04-25T21:27:36.310Z,12.77
2019-04-25T21:30:06.761Z,12.47
2019-04-25T21:32:53.948Z,12.80
2019-04-25T21:35:24.989Z,13.33
2019-04-25T21:37:55.451Z,13.10
2019-04-25T21:40:51.333Z,12.73
2019-04-25T21:43:24.768Z,14.33
2019-04-25T21:45:55.992Z,13.17
2019-04-25T21:48:26.737Z,13.33
2019-04-25T21:50:57.326Z,13.73
2019-04-25T21:53:27.657Z,14.30
2019-04-25T21:55:58.054Z,13.47
2019-04-25T21:58:28.507Z,13.97
2019-04-25T22:01:10.836Z,14.30
2019-04-25T22:03:42.694Z,13.80
2019-04-25T22:06:13.308Z,14.00
2019-04-25T22:08:43.546Z,14.77
2019-04-25T22:11:13.742Z,14.27
2019-04-25T22:13:44.190Z,15.17
2019-04-25T22:16:14.602Z,14.80
2019-04-25T22:18:45.096Z,14.63
2019-04-25T22:21:15.657Z,14.23
2019-04-25T22:23:46.258Z,13.80
2019-04-25T22:26:16.477Z,14.83
2019-04-25T22:28:47.194Z,15.30
2019-04-25T22:31:21.950Z,15.53
2019-04-25T22:34:11.611Z,14.93
2019-04-25T22:36:42.328Z,15.87
2019-04-25T22:39:12.911Z,16.80
2019-04-25T22:41:46.827Z,16.23
2019-04-25T22:44:19.730Z,16.33
2019-04-25T22:46:50.447Z,15.07
2019-04-25T22:49:20.597Z,15.70
2019-04-25T22:51:50.861Z,16.00
2019-04-25T22:54:22.437Z,15.43
2019-04-25T22:56:52.793Z,15.80
2019-04-25T22:59:24.490Z,16.60
2019-04-25T23:02:12.606Z,16.27
2019-04-25T23:05:09.078Z,16.17
2019-04-25T23:07:34.225Z,17.10
2019-04-25T23:10:06.233Z,16.20
2019-04-25T23:12:36.719Z,17.07
2019-04-25T23:15:07.575Z,16.70
2019-04-25T23:17:37.744Z,16.30
2019-04-25T23:20:09.568Z,17.77
2019-04-25T23:22:39.889Z,16.53
2019-04-25T23:25:12.266Z,17.23
2019-04-25T23:28:16.541Z,16.53
2019-04-25T23:31:18.389Z,15.93
2019-04-25T23:33:48.646Z,17.67
2019-04-25T23:36:19.082Z,18.10
2019-04-25T23:38:49.319Z,17.30
2019-04-25T23:41:20.148Z,17.10
2019-04-25T23:43:50.334Z,17.70
2019-04-25T23:46:20.542Z,17.90
2019-04-25T23:48:50.791Z,17.97
2019-04-25T23:51:21.017Z,17.80
2019-04-25T23:53:51.474Z,17.97
2019-04-25T23:56:21.626Z,17.13
2019-04-25T23:58:51.797Z,18.23
